Terminal Aerodrome Forecast
Issued by NWS Wilmington, OH

Current Version | Previous Version | Graphics & Text | Print | Product List | Glossary On
Versions: 1 2 3 4 5 6 7 8 9 10 11 12 13 14 15 16 17 18 19 20 21 22
000
FTUS41 KILN 170542
TAFCMH
TAF
KCMH 170542Z 1706/1806 00000KT P6SM OVC035
      TEMPO 1708/1711 OVC028
     FM171200 14004KT P6SM SCT025 BKN120
     FM171800 19007KT P6SM -RASN BKN015 OVC070
     FM172000 20006KT P6SM VCSH OVC015
     FM180000 23006KT P6SM -SN OVC008
     FM180300 24008KT P6SM VCSH OVC012=

USA.gov is the U.S. government's official web portal to all federal, state and local government web resources and services.